sensor_id;sensor_type;location;lat;lon;timestamp;P1;durP1;ratioP1;P2;durP2;ratioP2
45388;SDS011;31127;52.078;4.370;2023-11-21T00:01:34;15.30;;;8.00;;
45388;SDS011;31127;52.078;4.370;2023-11-21T00:06:30;18.98;;;7.50;;
45388;SDS011;31127;52.078;4.370;2023-11-21T00:11:25;16.42;;;7.32;;
45388;SDS011;31127;52.078;4.370;2023-11-21T00:16:24;18.35;;;7.82;;
45388;SDS011;31127;52.078;4.370;2023-11-21T00:21:20;20.48;;;8.40;;
45388;SDS011;31127;52.078;4.370;2023-11-21T00:26:16;17.27;;;8.43;;
45388;SDS011;31127;52.078;4.370;2023-11-21T00:31:16;18.27;;;7.80;;
45388;SDS011;31127;52.078;4.370;2023-11-21T00:36:12;20.80;;;6.90;;
45388;SDS011;31127;52.078;4.370;2023-11-21T00:41:09;16.58;;;6.30;;
45388;SDS011;31127;52.078;4.370;2023-11-21T00:46:04;15.97;;;7.03;;
45388;SDS011;31127;52.078;4.370;2023-11-21T00:51:20;15.63;;;7.03;;
45388;SDS011;31127;52.078;4.370;2023-11-21T00:56:16;20.80;;;7.75;;
45388;SDS011;31127;52.078;4.370;2023-11-21T01:01:31;14.70;;;7.53;;
45388;SDS011;31127;52.078;4.370;2023-11-21T01:06:46;12.40;;;6.47;;
45388;SDS011;31127;52.078;4.370;2023-11-21T01:11:42;14.80;;;6.65;;
45388;SDS011;31127;52.078;4.370;2023-11-21T01:16:38;20.20;;;7.70;;
45388;SDS011;31127;52.078;4.370;2023-11-21T01:21:33;18.47;;;7.83;;
45388;SDS011;31127;52.078;4.370;2023-11-21T01:26:48;16.30;;;6.18;;
45388;SDS011;31127;52.078;4.370;2023-11-21T01:32:04;15.23;;;5.60;;
45388;SDS011;31127;52.078;4.370;2023-11-21T01:37:03;17.38;;;5.72;;
45388;SDS011;31127;52.078;4.370;2023-11-21T01:42:18;15.00;;;6.20;;
45388;SDS011;31127;52.078;4.370;2023-11-21T01:47:14;17.02;;;5.50;;
45388;SDS011;31127;52.078;4.370;2023-11-21T01:52:11;18.88;;;5.97;;
45388;SDS011;31127;52.078;4.370;2023-11-21T01:57:26;19.63;;;6.53;;
45388;SDS011;31127;52.078;4.370;2023-11-21T02:02:22;12.38;;;5.90;;
45388;SDS011;31127;52.078;4.370;2023-11-21T02:07:17;13.10;;;5.78;;
45388;SDS011;31127;52.078;4.370;2023-11-21T02:12:14;11.82;;;6.03;;
45388;SDS011;31127;52.078;4.370;2023-11-21T02:17:10;12.60;;;6.40;;
45388;SDS011;31127;52.078;4.370;2023-11-21T02:22:07;15.93;;;5.45;;
45388;SDS011;31127;52.078;4.370;2023-11-21T02:27:03;12.18;;;5.72;;
45388;SDS011;31127;52.078;4.370;2023-11-21T02:31:58;14.63;;;5.85;;
45388;SDS011;31127;52.078;4.370;2023-11-21T02:36:54;11.85;;;5.75;;
45388;SDS011;31127;52.078;4.370;2023-11-21T02:42:10;12.55;;;6.05;;
45388;SDS011;31127;52.078;4.370;2023-11-21T02:47:25;14.43;;;5.82;;
45388;SDS011;31127;52.078;4.370;2023-11-21T02:52:24;10.95;;;5.68;;
45388;SDS011;31127;52.078;4.370;2023-11-21T02:57:39;11.70;;;5.40;;
45388;SDS011;31127;52.078;4.370;2023-11-21T03:02:35;16.80;;;6.18;;
45388;SDS011;31127;52.078;4.370;2023-11-21T03:07:50;9.07;;;5.78;;
45388;SDS011;31127;52.078;4.370;2023-11-21T03:13:05;12.73;;;6.75;;
45388;SDS011;31127;52.078;4.370;2023-11-21T03:18:01;11.23;;;6.05;;
45388;SDS011;31127;52.078;4.370;2023-11-21T03:23:17;14.93;;;5.90;;
45388;SDS011;31127;52.078;4.370;2023-11-21T03:28:12;19.55;;;6.35;;
45388;SDS011;31127;52.078;4.370;2023-11-21T03:33:28;11.95;;;5.95;;
45388;SDS011;31127;52.078;4.370;2023-11-21T03:38:43;16.98;;;6.65;;
45388;SDS011;31127;52.078;4.370;2023-11-21T03:43:38;12.57;;;6.20;;
45388;SDS011;31127;52.078;4.370;2023-11-21T03:48:34;8.32;;;4.53;;
45388;SDS011;31127;52.078;4.370;2023-11-21T03:53:30;13.25;;;5.55;;
45388;SDS011;31127;52.078;4.370;2023-11-21T03:58:26;10.05;;;5.35;;
45388;SDS011;31127;52.078;4.370;2023-11-21T04:03:41;13.38;;;5.60;;
45388;SDS011;31127;52.078;4.370;2023-11-21T04:08:57;8.93;;;5.30;;
45388;SDS011;31127;52.078;4.370;2023-11-21T04:13:52;14.77;;;5.72;;
45388;SDS011;31127;52.078;4.370;2023-11-21T04:18:47;12.53;;;5.10;;
45388;SDS011;31127;52.078;4.370;2023-11-21T04:24:03;8.77;;;4.72;;
45388;SDS011;31127;52.078;4.370;2023-11-21T04:28:58;12.55;;;5.70;;
45388;SDS011;31127;52.078;4.370;2023-11-21T04:33:54;7.53;;;4.53;;
45388;SDS011;31127;52.078;4.370;2023-11-21T04:38:49;9.32;;;4.25;;
45388;SDS011;31127;52.078;4.370;2023-11-21T04:43:45;8.52;;;4.35;;
45388;SDS011;31127;52.078;4.370;2023-11-21T04:48:40;6.70;;;2.60;;
45388;SDS011;31127;52.078;4.370;2023-11-21T04:53:36;4.80;;;3.27;;
45388;SDS011;31127;52.078;4.370;2023-11-21T04:58:51;8.20;;;4.82;;
45388;SDS011;31127;52.078;4.370;2023-11-21T05:04:06;6.68;;;2.80;;
45388;SDS011;31127;52.078;4.370;2023-11-21T05:09:03;5.70;;;2.58;;
45388;SDS011;31127;52.078;4.370;2023-11-21T05:13:59;23.70;;;7.68;;
45388;SDS011;31127;52.078;4.370;2023-11-21T05:18:56;5.40;;;3.30;;
45388;SDS011;31127;52.078;4.370;2023-11-21T05:23:55;6.45;;;3.30;;
45388;SDS011;31127;52.078;4.370;2023-11-21T05:29:10;6.57;;;3.00;;
45388;SDS011;31127;52.078;4.370;2023-11-21T05:34:06;4.28;;;3.05;;
45388;SDS011;31127;52.078;4.370;2023-11-21T05:39:01;4.33;;;2.43;;
45388;SDS011;31127;52.078;4.370;2023-11-21T05:43:58;4.90;;;2.67;;
45388;SDS011;31127;52.078;4.370;2023-11-21T05:49:14;4.60;;;2.78;;
45388;SDS011;31127;52.078;4.370;2023-11-21T05:54:10;6.60;;;2.40;;
45388;SDS011;31127;52.078;4.370;2023-11-21T05:59:06;4.55;;;2.38;;
45388;SDS011;31127;52.078;4.370;2023-11-21T06:04:01;5.18;;;1.88;;
45388;SDS011;31127;52.078;4.370;2023-11-21T06:08:57;5.23;;;1.80;;
45388;SDS011;31127;52.078;4.370;2023-11-21T06:13:52;4.68;;;1.40;;
45388;SDS011;31127;52.078;4.370;2023-11-21T06:18:50;4.93;;;1.25;;
45388;SDS011;31127;52.078;4.370;2023-11-21T06:24:06;5.72;;;1.70;;
45388;SDS011;31127;52.078;4.370;2023-11-21T06:29:02;8.40;;;1.73;;
45388;SDS011;31127;52.078;4.370;2023-11-21T06:33:58;4.75;;;1.63;;
45388;SDS011;31127;52.078;4.370;2023-11-21T06:38:54;4.90;;;1.45;;
45388;SDS011;31127;52.078;4.370;2023-11-21T06:43:50;8.15;;;2.17;;
45388;SDS011;31127;52.078;4.370;2023-11-21T06:48:46;11.32;;;2.65;;
45388;SDS011;31127;52.078;4.370;2023-11-21T06:54:01;10.75;;;2.92;;
45388;SDS011;31127;52.078;4.370;2023-11-21T06:58:56;13.48;;;3.70;;
45388;SDS011;31127;52.078;4.370;2023-11-21T07:03:52;9.88;;;3.33;;
45388;SDS011;31127;52.078;4.370;2023-11-21T07:08:47;12.50;;;4.00;;
45388;SDS011;31127;52.078;4.370;2023-11-21T07:13:43;14.18;;;4.03;;
45388;SDS011;31127;52.078;4.370;2023-11-21T07:18:38;17.27;;;4.03;;
45388;SDS011;31127;52.078;4.370;2023-11-21T07:23:35;14.55;;;3.25;;
45388;SDS011;31127;52.078;4.370;2023-11-21T07:28:31;14.65;;;4.03;;
45388;SDS011;31127;52.078;4.370;2023-11-21T07:33:27;16.65;;;3.63;;
45388;SDS011;31127;52.078;4.370;2023-11-21T07:38:22;12.60;;;3.40;;
45388;SDS011;31127;52.078;4.370;2023-11-21T07:43:38;13.55;;;2.78;;
45388;SDS011;31127;52.078;4.370;2023-11-21T07:48:33;11.60;;;2.42;;
45388;SDS011;31127;52.078;4.370;2023-11-21T07:53:29;11.80;;;2.50;;
45388;SDS011;31127;52.078;4.370;2023-11-21T07:58:25;9.65;;;2.83;;
45388;SDS011;31127;52.078;4.370;2023-11-21T08:03:20;13.90;;;3.20;;
45388;SDS011;31127;52.078;4.370;2023-11-21T08:08:16;9.05;;;2.70;;
45388;SDS011;31127;52.078;4.370;2023-11-21T08:13:13;6.35;;;2.30;;
45388;SDS011;31127;52.078;4.370;2023-11-21T08:18:11;8.55;;;2.88;;
45388;SDS011;31127;52.078;4.370;2023-11-21T08:23:06;7.65;;;2.83;;
45388;SDS011;31127;52.078;4.370;2023-11-21T08:28:02;13.25;;;3.10;;
45388;SDS011;31127;52.078;4.370;2023-11-21T08:33:18;12.20;;;2.95;;
45388;SDS011;31127;52.078;4.370;2023-11-21T08:38:13;9.52;;;2.83;;
45388;SDS011;31127;52.078;4.370;2023-11-21T08:43:09;10.63;;;2.83;;
45388;SDS011;31127;52.078;4.370;2023-11-21T08:48:07;7.55;;;2.90;;
45388;SDS011;31127;52.078;4.370;2023-11-21T08:53:02;13.80;;;2.55;;
45388;SDS011;31127;52.078;4.370;2023-11-21T08:58:01;11.02;;;2.80;;
45388;SDS011;31127;52.078;4.370;2023-11-21T09:02:56;7.85;;;2.53;;
45388;SDS011;31127;52.078;4.370;2023-11-21T09:08:12;8.90;;;3.17;;
45388;SDS011;31127;52.078;4.370;2023-11-21T09:13:07;6.22;;;2.50;;
45388;SDS011;31127;52.078;4.370;2023-11-21T09:18:04;5.43;;;3.13;;
45388;SDS011;31127;52.078;4.370;2023-11-21T09:23:00;6.75;;;3.47;;
45388;SDS011;31127;52.078;4.370;2023-11-21T09:27:56;8.70;;;3.40;;
45388;SDS011;31127;52.078;4.370;2023-11-21T09:32:52;4.93;;;3.35;;
45388;SDS011;31127;52.078;4.370;2023-11-21T09:37:48;4.80;;;3.03;;
45388;SDS011;31127;52.078;4.370;2023-11-21T09:42:47;6.82;;;4.88;;
45388;SDS011;31127;52.078;4.370;2023-11-21T09:48:04;15.90;;;9.93;;
45388;SDS011;31127;52.078;4.370;2023-11-21T09:53:16;5.45;;;3.53;;
45388;SDS011;31127;52.078;4.370;2023-11-21T09:58:33;5.32;;;3.28;;
45388;SDS011;31127;52.078;4.370;2023-11-21T10:03:46;6.43;;;3.65;;
45388;SDS011;31127;52.078;4.370;2023-11-21T10:08:42;5.10;;;3.83;;
45388;SDS011;31127;52.078;4.370;2023-11-21T10:13:39;4.03;;;3.10;;
45388;SDS011;31127;52.078;4.370;2023-11-21T10:18:35;6.53;;;3.83;;
45388;SDS011;31127;52.078;4.370;2023-11-21T10:23:33;4.97;;;2.92;;
45388;SDS011;31127;52.078;4.370;2023-11-21T10:28:29;10.88;;;6.45;;
45388;SDS011;31127;52.078;4.370;2023-11-21T10:33:27;3.53;;;2.60;;
45388;SDS011;31127;52.078;4.370;2023-11-21T10:38:26;3.47;;;2.35;;
45388;SDS011;31127;52.078;4.370;2023-11-21T10:43:26;5.35;;;2.47;;
45388;SDS011;31127;52.078;4.370;2023-11-21T10:48:22;5.80;;;2.72;;
45388;SDS011;31127;52.078;4.370;2023-11-21T10:53:40;5.28;;;2.85;;
45388;SDS011;31127;52.078;4.370;2023-11-21T10:58:37;4.13;;;2.70;;
45388;SDS011;31127;52.078;4.370;2023-11-21T11:03:33;5.13;;;3.30;;
45388;SDS011;31127;52.078;4.370;2023-11-21T11:08:31;6.68;;;3.28;;
45388;SDS011;31127;52.078;4.370;2023-11-21T11:13:26;6.95;;;3.67;;
45388;SDS011;31127;52.078;4.370;2023-11-21T11:18:22;4.63;;;3.08;;
45388;SDS011;31127;52.078;4.370;2023-11-21T11:23:33;7.30;;;3.85;;
45388;SDS011;31127;52.078;4.370;2023-11-21T11:28:31;6.38;;;4.95;;
45388;SDS011;31127;52.078;4.370;2023-11-21T11:33:45;7.93;;;4.80;;
45388;SDS011;31127;52.078;4.370;2023-11-21T11:38:47;11.65;;;5.30;;
45388;SDS011;31127;52.078;4.370;2023-11-21T11:43:44;9.57;;;4.78;;
45388;SDS011;31127;52.078;4.370;2023-11-21T11:48:40;5.88;;;4.50;;
45388;SDS011;31127;52.078;4.370;2023-11-21T11:53:36;7.10;;;5.20;;
45388;SDS011;31127;52.078;4.370;2023-11-21T11:58:38;6.72;;;4.90;;
45388;SDS011;31127;52.078;4.370;2023-11-21T12:03:34;6.55;;;4.50;;
45388;SDS011;31127;52.078;4.370;2023-11-21T12:08:31;5.28;;;4.00;;
45388;SDS011;31127;52.078;4.370;2023-11-21T12:13:28;4.95;;;3.22;;
45388;SDS011;31127;52.078;4.370;2023-11-21T12:18:43;5.57;;;3.33;;
45388;SDS011;31127;52.078;4.370;2023-11-21T12:23:39;3.37;;;2.90;;
45388;SDS011;31127;52.078;4.370;2023-11-21T12:28:54;4.22;;;3.47;;
45388;SDS011;31127;52.078;4.370;2023-11-21T12:33:51;4.28;;;3.53;;
45388;SDS011;31127;52.078;4.370;2023-11-21T12:38:47;4.65;;;3.95;;
45388;SDS011;31127;52.078;4.370;2023-11-21T12:43:42;3.70;;;3.35;;
45388;SDS011;31127;52.078;4.370;2023-11-21T12:48:39;9.05;;;5.60;;
45388;SDS011;31127;52.078;4.370;2023-11-21T12:53:35;5.07;;;3.47;;
45388;SDS011;31127;52.078;4.370;2023-11-21T12:58:32;5.13;;;4.13;;
45388;SDS011;31127;52.078;4.370;2023-11-21T13:03:47;6.65;;;4.30;;
45388;SDS011;31127;52.078;4.370;2023-11-21T13:08:46;7.40;;;4.13;;
45388;SDS011;31127;52.078;4.370;2023-11-21T13:13:42;5.13;;;3.97;;
45388;SDS011;31127;52.078;4.370;2023-11-21T13:18:38;3.15;;;2.67;;
45388;SDS011;31127;52.078;4.370;2023-11-21T13:23:37;6.30;;;3.55;;
45388;SDS011;31127;52.078;4.370;2023-11-21T13:28:33;4.78;;;3.90;;
45388;SDS011;31127;52.078;4.370;2023-11-21T13:33:28;3.90;;;2.70;;
45388;SDS011;31127;52.078;4.370;2023-11-21T13:38:24;4.72;;;3.20;;
45388;SDS011;31127;52.078;4.370;2023-11-21T13:43:20;5.03;;;3.58;;
45388;SDS011;31127;52.078;4.370;2023-11-21T13:48:16;5.68;;;3.80;;
45388;SDS011;31127;52.078;4.370;2023-11-21T13:53:32;4.65;;;4.00;;
45388;SDS011;31127;52.078;4.370;2023-11-21T13:58:28;11.10;;;7.75;;
45388;SDS011;31127;52.078;4.370;2023-11-21T14:03:56;5.95;;;4.10;;
45388;SDS011;31127;52.078;4.370;2023-11-21T14:09:20;7.22;;;4.22;;
45388;SDS011;31127;52.078;4.370;2023-11-21T14:14:28;8.90;;;6.25;;
45388;SDS011;31127;52.078;4.370;2023-11-21T14:19:43;10.30;;;7.03;;
45388;SDS011;31127;52.078;4.370;2023-11-21T14:24:59;9.02;;;7.35;;
45388;SDS011;31127;52.078;4.370;2023-11-21T14:29:59;12.70;;;7.10;;
45388;SDS011;31127;52.078;4.370;2023-11-21T14:35:15;11.43;;;7.78;;
45388;SDS011;31127;52.078;4.370;2023-11-21T14:40:11;11.50;;;7.70;;
45388;SDS011;31127;52.078;4.370;2023-11-21T14:45:07;11.73;;;8.63;;
45388;SDS011;31127;52.078;4.370;2023-11-21T14:50:03;8.82;;;7.30;;
45388;SDS011;31127;52.078;4.370;2023-11-21T14:55:19;11.88;;;9.07;;
45388;SDS011;31127;52.078;4.370;2023-11-21T15:00:27;15.23;;;10.27;;
45388;SDS011;31127;52.078;4.370;2023-11-21T15:05:31;15.25;;;9.55;;
45388;SDS011;31127;52.078;4.370;2023-11-21T15:10:47;12.30;;;8.43;;
45388;SDS011;31127;52.078;4.370;2023-11-21T15:15:48;10.05;;;7.40;;
45388;SDS011;31127;52.078;4.370;2023-11-21T15:20:43;11.60;;;7.80;;
45388;SDS011;31127;52.078;4.370;2023-11-21T15:25:39;10.88;;;7.40;;
45388;SDS011;31127;52.078;4.370;2023-11-21T15:30:55;10.27;;;7.60;;
45388;SDS011;31127;52.078;4.370;2023-11-21T15:35:52;10.60;;;7.40;;
45388;SDS011;31127;52.078;4.370;2023-11-21T15:40:49;8.82;;;6.85;;
45388;SDS011;31127;52.078;4.370;2023-11-21T15:45:45;11.02;;;6.80;;
45388;SDS011;31127;52.078;4.370;2023-11-21T15:51:00;8.95;;;7.28;;
45388;SDS011;31127;52.078;4.370;2023-11-21T15:55:57;8.10;;;6.38;;
45388;SDS011;31127;52.078;4.370;2023-11-21T16:00:53;8.68;;;7.30;;
45388;SDS011;31127;52.078;4.370;2023-11-21T16:05:49;9.55;;;6.68;;
45388;SDS011;31127;52.078;4.370;2023-11-21T16:10:45;9.75;;;7.40;;
45388;SDS011;31127;52.078;4.370;2023-11-21T16:16:00;9.65;;;6.88;;
45388;SDS011;31127;52.078;4.370;2023-11-21T16:21:16;9.75;;;7.30;;
45388;SDS011;31127;52.078;4.370;2023-11-21T16:26:11;10.82;;;7.90;;
45388;SDS011;31127;52.078;4.370;2023-11-21T16:31:07;10.05;;;8.25;;
45388;SDS011;31127;52.078;4.370;2023-11-21T16:36:22;12.02;;;8.95;;
45388;SDS011;31127;52.078;4.370;2023-11-21T16:41:21;10.73;;;8.55;;
45388;SDS011;31127;52.078;4.370;2023-11-21T16:46:17;11.77;;;8.02;;
45388;SDS011;31127;52.078;4.370;2023-11-21T16:51:32;12.10;;;7.65;;
45388;SDS011;31127;52.078;4.370;2023-11-21T16:56:48;10.00;;;8.55;;
45388;SDS011;31127;52.078;4.370;2023-11-21T17:01:44;11.70;;;8.50;;
45388;SDS011;31127;52.078;4.370;2023-11-21T17:06:40;11.57;;;8.65;;
45388;SDS011;31127;52.078;4.370;2023-11-21T17:11:36;12.05;;;9.18;;
45388;SDS011;31127;52.078;4.370;2023-11-21T17:16:32;13.57;;;8.82;;
45388;SDS011;31127;52.078;4.370;2023-11-21T17:21:28;12.20;;;8.90;;
45388;SDS011;31127;52.078;4.370;2023-11-21T17:26:23;10.60;;;7.87;;
45388;SDS011;31127;52.078;4.370;2023-11-21T17:31:20;15.55;;;8.35;;
45388;SDS011;31127;52.078;4.370;2023-11-21T17:36:17;12.15;;;8.30;;
45388;SDS011;31127;52.078;4.370;2023-11-21T17:41:18;13.80;;;9.10;;
45388;SDS011;31127;52.078;4.370;2023-11-21T17:46:20;11.63;;;8.93;;
45388;SDS011;31127;52.078;4.370;2023-11-21T17:51:16;13.20;;;9.25;;
45388;SDS011;31127;52.078;4.370;2023-11-21T17:56:20;14.07;;;9.68;;
45388;SDS011;31127;52.078;4.370;2023-11-21T18:01:16;15.35;;;10.07;;
45388;SDS011;31127;52.078;4.370;2023-11-21T18:06:12;15.60;;;9.05;;
45388;SDS011;31127;52.078;4.370;2023-11-21T18:11:10;15.50;;;9.98;;
45388;SDS011;31127;52.078;4.370;2023-11-21T18:16:09;18.40;;;10.40;;
45388;SDS011;31127;52.078;4.370;2023-11-21T18:21:24;16.50;;;11.25;;
45388;SDS011;31127;52.078;4.370;2023-11-21T18:26:20;16.42;;;10.98;;
45388;SDS011;31127;52.078;4.370;2023-11-21T18:31:15;13.88;;;10.02;;
45388;SDS011;31127;52.078;4.370;2023-11-21T18:36:11;15.02;;;10.73;;
45388;SDS011;31127;52.078;4.370;2023-11-21T18:41:07;18.52;;;10.55;;
45388;SDS011;31127;52.078;4.370;2023-11-21T18:46:03;13.20;;;9.35;;
45388;SDS011;31127;52.078;4.370;2023-11-21T18:50:58;15.85;;;9.93;;
45388;SDS011;31127;52.078;4.370;2023-11-21T18:55:54;17.55;;;11.43;;
45388;SDS011;31127;52.078;4.370;2023-11-21T19:00:51;15.07;;;10.00;;
45388;SDS011;31127;52.078;4.370;2023-11-21T19:06:07;17.42;;;10.35;;
45388;SDS011;31127;52.078;4.370;2023-11-21T19:11:23;14.75;;;9.93;;
45388;SDS011;31127;52.078;4.370;2023-11-21T19:16:18;16.13;;;11.18;;
45388;SDS011;31127;52.078;4.370;2023-11-21T19:21:16;15.68;;;10.05;;
45388;SDS011;31127;52.078;4.370;2023-11-21T19:26:12;15.65;;;10.35;;
45388;SDS011;31127;52.078;4.370;2023-11-21T19:31:27;18.20;;;11.25;;
45388;SDS011;31127;52.078;4.370;2023-11-21T19:36:42;20.27;;;11.93;;
45388;SDS011;31127;52.078;4.370;2023-11-21T19:41:38;18.20;;;11.60;;
45388;SDS011;31127;52.078;4.370;2023-11-21T19:46:34;19.10;;;12.10;;
45388;SDS011;31127;52.078;4.370;2023-11-21T19:51:29;18.33;;;11.75;;
45388;SDS011;31127;52.078;4.370;2023-11-21T19:56:25;18.40;;;11.85;;
45388;SDS011;31127;52.078;4.370;2023-11-21T20:01:20;20.55;;;12.50;;
45388;SDS011;31127;52.078;4.370;2023-11-21T20:06:39;24.92;;;12.85;;
45388;SDS011;31127;52.078;4.370;2023-11-21T20:11:55;22.25;;;13.02;;
45388;SDS011;31127;52.078;4.370;2023-11-21T20:16:53;20.92;;;12.35;;
45388;SDS011;31127;52.078;4.370;2023-11-21T20:21:50;24.42;;;13.90;;
45388;SDS011;31127;52.078;4.370;2023-11-21T20:26:46;17.05;;;11.63;;
45388;SDS011;31127;52.078;4.370;2023-11-21T20:31:42;20.10;;;11.88;;
45388;SDS011;31127;52.078;4.370;2023-11-21T20:36:38;26.02;;;12.85;;
45388;SDS011;31127;52.078;4.370;2023-11-21T20:41:33;19.08;;;12.70;;
45388;SDS011;31127;52.078;4.370;2023-11-21T20:46:29;22.17;;;12.68;;
45388;SDS011;31127;52.078;4.370;2023-11-21T20:51:25;22.02;;;12.10;;
45388;SDS011;31127;52.078;4.370;2023-11-21T20:56:20;22.85;;;11.65;;
45388;SDS011;31127;52.078;4.370;2023-11-21T21:01:36;21.20;;;11.73;;
45388;SDS011;31127;52.078;4.370;2023-11-21T21:06:31;19.25;;;12.57;;
45388;SDS011;31127;52.078;4.370;2023-11-21T21:11:36;23.42;;;13.82;;
45388;SDS011;31127;52.078;4.370;2023-11-21T21:16:32;21.42;;;12.52;;
45388;SDS011;31127;52.078;4.370;2023-11-21T21:21:30;20.67;;;11.60;;
45388;SDS011;31127;52.078;4.370;2023-11-21T21:26:26;18.63;;;12.00;;
45388;SDS011;31127;52.078;4.370;2023-11-21T21:31:24;22.45;;;13.23;;
45388;SDS011;31127;52.078;4.370;2023-11-21T21:36:20;18.35;;;11.10;;
45388;SDS011;31127;52.078;4.370;2023-11-21T21:41:17;17.52;;;11.77;;
45388;SDS011;31127;52.078;4.370;2023-11-21T21:46:17;18.80;;;11.48;;
45388;SDS011;31127;52.078;4.370;2023-11-21T21:51:14;19.58;;;10.93;;
45388;SDS011;31127;52.078;4.370;2023-11-21T21:56:29;19.20;;;10.82;;
45388;SDS011;31127;52.078;4.370;2023-11-21T22:01:45;17.92;;;10.75;;
45388;SDS011;31127;52.078;4.370;2023-11-21T22:06:40;32.45;;;18.48;;
45388;SDS011;31127;52.078;4.370;2023-11-21T22:11:56;16.30;;;9.48;;
45388;SDS011;31127;52.078;4.370;2023-11-21T22:16:52;15.18;;;9.30;;
45388;SDS011;31127;52.078;4.370;2023-11-21T22:22:10;25.25;;;14.90;;
45388;SDS011;31127;52.078;4.370;2023-11-21T22:27:25;13.95;;;9.80;;
45388;SDS011;31127;52.078;4.370;2023-11-21T22:32:24;15.10;;;9.07;;
45388;SDS011;31127;52.078;4.370;2023-11-21T22:37:40;14.18;;;8.55;;
45388;SDS011;31127;52.078;4.370;2023-11-21T22:42:44;13.07;;;8.50;;
45388;SDS011;31127;52.078;4.370;2023-11-21T22:47:40;15.88;;;8.32;;
45388;SDS011;31127;52.078;4.370;2023-11-21T22:52:39;13.63;;;8.02;;
45388;SDS011;31127;52.078;4.370;2023-11-21T22:57:43;12.82;;;8.50;;
45388;SDS011;31127;52.078;4.370;2023-11-21T23:02:39;17.98;;;8.90;;
45388;SDS011;31127;52.078;4.370;2023-11-21T23:07:54;11.80;;;7.68;;
45388;SDS011;31127;52.078;4.370;2023-11-21T23:12:50;12.68;;;7.75;;
45388;SDS011;31127;52.078;4.370;2023-11-21T23:17:47;14.38;;;7.57;;
45388;SDS011;31127;52.078;4.370;2023-11-21T23:22:46;14.63;;;7.65;;
45388;SDS011;31127;52.078;4.370;2023-11-21T23:27:41;14.60;;;8.82;;
45388;SDS011;31127;52.078;4.370;2023-11-21T23:32:37;12.80;;;6.90;;
45388;SDS011;31127;52.078;4.370;2023-11-21T23:37:52;11.68;;;7.95;;
45388;SDS011;31127;52.078;4.370;2023-11-21T23:42:48;11.30;;;7.53;;
45388;SDS011;31127;52.078;4.370;2023-11-21T23:48:04;10.70;;;7.07;;
45388;SDS011;31127;52.078;4.370;2023-11-21T23:53:00;13.10;;;7.97;;
45388;SDS011;31127;52.078;4.370;2023-11-21T23:57:55;19.97;;;9.40;;
